Dunton, Colorado
Current Conditions -  °F | °C
As of 6:53 AM on Thursday 30 Oct 2014 (Local Time) from KCEZ Reporting Station
Clear Clear  
Wind Chill: 24°   Ceiling: Unl
Heat Index: 29°   Visibility: 10mi
Dew Point: 17°   Wind: 5mph
Humidity: 61%   Direction: 50°NE
Pressure: 30.34"   Gusts: NA
Location:  37.5429°N, 108.35°W
Report Text: KCEZ 301253Z AUTO 05004KT 10SM CLR M02/M08 A3034 RMK AO2 SLP258 T10171083
Loading
Personal Weather Stations






























Interactive Weather Map
Tropical Storm Tracking
New forecast layout! Learn more

10-Day Weather Forecast

Advertisements
Track Severe Weather on mobile